Crediton, Canada
Current Conditions -  °F | °C
As of 2:00 AM on Sunday 23 Nov 2014 (Local Time) from CYXU Reporting Station
Broken Clouds Broken Clouds  
Wind Chill: 39°   Ceiling: 4000
Heat Index: 45°   Visibility: 15mi
Dew Point: 39°   Wind: 10mph
Humidity: 81%   Direction: 230°SW
Pressure: 29.95"   Gusts: NA
Location:  43.3°N, 81.55°W
Report Text: CYXU 230700Z 23009KT 15SM BKN040 07/04 A2995 RMK SC7 SLP148
Loading
Personal Weather Stations






























Interactive Weather Map New forecast layout! Learn more

10-Day Weather Forecast

Advertisements
Track Severe Weather on mobile